Time;durP1;ratioP1;P1;durP2;ratioP2;P2;SDS_P1;SDS_P2;PMS_P1;PMS_P2;Temp;Humidity;BMP_temperature;BMP_pressure;BME280_temperature;BME280_humidity;BME280_pressure;Samples;Min_cycle;Max_cycle;Signal;HPM_P1;HPM_P2
2022/05/29 00:01:01;;;;;;;10.20;3.50;;;8.80;99.90;;;;;;10488394;28;20032;-82
2022/05/29 00:06:02;;;;;;;6.93;3.40;;;8.80;99.90;;;;;;10487439;28;20050;-82
2022/05/29 00:11:05;;;;;;;9.50;3.63;;;8.80;99.90;;;;;;10489461;28;20387;-83
2022/05/29 00:16:06;;;;;;;6.10;3.63;;;8.70;99.90;;;;;;10496419;28;20060;-82
2022/05/29 00:21:06;;;;;;;7.40;3.33;;;8.50;99.90;;;;;;10489341;28;20111;-82
2022/05/29 00:26:08;;;;;;;8.73;4.47;;;8.10;99.90;;;;;;10491593;28;20024;-82
2022/05/29 00:31:09;;;;;;;9.07;4.70;;;7.80;99.90;;;;;;10482170;28;20036;-82
2022/05/29 00:36:13;;;;;;;8.87;3.87;;;7.70;99.90;;;;;;10490539;28;20439;-82
2022/05/29 00:41:27;;;;;;;11.10;5.03;;;7.40;99.90;;;;;;10486723;28;20029;-82
2022/05/29 00:46:30;;;;;;;10.77;5.80;;;7.10;99.90;;;;;;10490719;28;20661;-82
2022/05/29 00:51:32;;;;;;;10.43;5.60;;;7.00;99.90;;;;;;10469933;28;20027;-82
2022/05/29 00:56:34;;;;;;;7.80;4.83;;;6.90;99.90;;;;;;10487285;28;20060;-82
2022/05/29 01:01:35;;;;;;;9.23;4.33;;;6.80;99.90;;;;;;10486300;28;20063;-82
2022/05/29 01:06:36;;;;;;;8.33;4.97;;;6.70;99.90;;;;;;10463743;28;20040;-82
2022/05/29 01:11:55;;;;;;;9.37;4.77;;;6.50;99.90;;;;;;10487636;28;20036;-83
2022/05/29 01:17:16;;;;;;;11.37;5.50;;;6.50;99.90;;;;;;10485255;28;20036;-82
2022/05/29 01:22:44;;;;;;;10.17;4.57;;;6.40;99.90;;;;;;10487843;28;20078;-82
2022/05/29 01:28:10;;;;;;;8.63;4.27;;;6.40;99.90;;;;;;10491079;28;20098;-82
2022/05/29 01:33:30;;;;;;;;;;;6.60;99.90;;;;;;10486493;28;20660;-82
2022/05/29 01:38:48;;;;;;;8.80;5.10;;;6.70;99.90;;;;;;10485344;28;20003;-82
2022/05/29 01:43:57;;;;;;;9.17;4.97;;;6.50;99.90;;;;;;10469015;28;20036;-82
2022/05/29 01:49:22;;;;;;;11.60;5.33;;;6.30;99.90;;;;;;10494684;28;20032;-83
2022/05/29 01:54:30;;;;;;;8.47;4.53;;;6.40;99.90;;;;;;10486106;28;20013;-81
2022/05/29 01:59:40;;;;;;;14.20;5.13;;;6.40;99.90;;;;;;10486408;28;20235;-82
2022/05/29 02:04:46;;;;;;;9.40;5.03;;;6.30;99.90;;;;;;10487290;28;20028;-82
2022/05/29 02:09:53;;;;;;;11.17;5.37;;;6.30;99.90;;;;;;10542874;23;20555;-81
2022/05/29 02:15:06;;;;;;;13.23;5.63;;;6.20;99.90;;;;;;10586208;28;20058;-82
2022/05/29 02:20:16;;;;;;;13.30;5.90;;;6.10;99.90;;;;;;10568936;28;20550;-82
2022/05/29 02:25:23;;;;;;;12.80;7.77;;;5.90;99.90;;;;;;10569596;28;20032;-82
2022/05/29 02:30:35;;;;;;;21.60;10.43;;;5.80;99.90;;;;;;10573850;28;20097;-81
2022/05/29 02:35:47;;;;;;;16.30;8.27;;;5.60;99.90;;;;;;10568906;27;20039;-82
2022/05/29 02:40:59;;;;;;;17.53;7.53;;;5.60;99.90;;;;;;10575331;28;20063;-82
2022/05/29 02:46:43;;;;;;;15.97;8.97;;;5.70;99.90;;;;;;10574344;28;20053;-82
2022/05/29 02:51:54;;;;;;;21.20;12.50;;;5.70;99.90;;;;;;10571802;28;20035;-81
2022/05/29 02:56:57;;;;;;;25.40;12.87;;;5.70;99.90;;;;;;10576262;28;20036;-81
2022/05/29 03:02:30;;;;;;;23.90;12.40;;;5.80;99.90;;;;;;10570332;28;20130;-81
2022/05/29 03:07:51;;;;;;;22.43;12.67;;;5.80;99.90;;;;;;10573802;28;20054;-82
2022/05/29 03:13:04;;;;;;;22.47;11.13;;;5.90;99.90;;;;;;10569911;28;20146;-82
2022/05/29 03:18:24;;;;;;;17.20;8.87;;;5.90;99.90;;;;;;10574060;28;20114;-82
2022/05/29 03:23:39;;;;;;;18.27;8.47;;;6.00;99.90;;;;;;10570194;28;20553;-82
2022/05/29 03:28:47;;;;;;;18.60;8.77;;;6.10;99.90;;;;;;10562614;28;20055;-82
2022/05/29 03:33:49;;;;;;;17.17;9.33;;;6.20;99.90;;;;;;10557029;28;20111;-81
2022/05/29 03:38:50;;;;;;;18.77;8.80;;;6.40;99.90;;;;;;10574410;28;20410;-82
2022/05/29 03:43:50;;;;;;;23.00;10.20;;;6.50;99.90;;;;;;10566538;28;20043;-83
2022/05/29 03:48:51;;;;;;;20.10;10.80;;;6.60;99.90;;;;;;10560404;28;20085;-82
2022/05/29 03:53:52;;;;;;;18.50;10.57;;;6.60;99.90;;;;;;10572805;28;20031;-82
2022/05/29 03:58:53;;;;;;;21.10;11.30;;;6.60;99.90;;;;;;10569471;28;20114;-82
2022/05/29 04:03:54;;;;;;;20.70;10.80;;;6.60;99.90;;;;;;10573981;28;20032;-81
2022/05/29 04:14:14;;;;;;;22.00;10.53;;;6.60;99.90;;;;;;10554077;28;20684;-82
2022/05/29 04:19:14;;;;;;;23.67;10.93;;;6.70;99.90;;;;;;10572505;28;20035;-81
2022/05/29 04:24:20;;;;;;;19.00;11.43;;;6.80;99.90;;;;;;10565299;28;20027;-82
2022/05/29 04:29:21;;;;;;;22.50;12.10;;;6.90;99.90;;;;;;10557593;28;20035;-81
2022/05/29 04:34:21;;;;;;;20.63;12.17;;;7.20;99.90;;;;;;10551613;28;20019;-81
2022/05/29 04:39:22;;;;;;;19.57;10.40;;;7.50;99.90;;;;;;10569030;28;20055;-81
2022/05/29 04:44:23;;;;;;;22.73;11.97;;;7.70;99.90;;;;;;10571963;28;20106;-81
2022/05/29 04:49:23;;;;;;;23.73;11.20;;;8.00;99.90;;;;;;10567576;28;20434;-81
2022/05/29 04:54:24;;;;;;;20.07;10.67;;;8.20;99.90;;;;;;10572023;28;20111;-81
2022/05/29 04:59:25;;;;;;;21.77;10.93;;;8.40;99.90;;;;;;10557701;28;20044;-81
2022/05/29 05:04:26;;;;;;;23.07;10.90;;;8.70;99.90;;;;;;10566757;28;20542;-81
2022/05/29 05:09:28;;;;;;;15.07;8.30;;;8.90;99.90;;;;;;10569580;28;20457;-81
2022/05/29 05:14:30;;;;;;;19.03;9.20;;;9.10;99.90;;;;;;10571404;28;20067;-82
2022/05/29 05:19:30;;;;;;;18.10;8.53;;;9.20;99.90;;;;;;10549821;28;20028;-81
2022/05/29 05:24:34;;;;;;;20.37;8.47;;;9.40;99.90;;;;;;10560500;28;20027;-81
2022/05/29 05:29:35;;;;;;;12.67;7.50;;;9.60;99.90;;;;;;10567071;28;20378;-81
2022/05/29 05:34:35;;;;;;;15.73;7.03;;;9.70;99.90;;;;;;10565732;28;20020;-82
2022/05/29 05:39:36;;;;;;;12.50;6.00;;;9.90;99.90;;;;;;10571209;28;20390;-81
2022/05/29 05:44:37;;;;;;;11.52;6.18;;;10.10;99.90;;;;;;10562926;28;20092;-81
2022/05/29 05:49:38;;;;;;;14.90;6.28;;;10.30;99.90;;;;;;10556995;28;20032;-82
2022/05/29 05:54:38;;;;;;;14.75;6.10;;;10.50;99.90;;;;;;10538628;22;20059;-81
2022/05/29 05:59:40;;;;;;;9.60;4.80;;;10.70;99.90;;;;;;10486732;28;20036;-82
2022/05/29 06:04:42;;;;;;;8.50;4.50;;;10.90;99.90;;;;;;10498035;28;20092;-82
2022/05/29 06:09:43;;;;;;;9.35;4.07;;;11.10;99.90;;;;;;10494510;28;20048;-82
2022/05/29 06:14:43;;;;;;;12.95;4.70;;;11.20;99.90;;;;;;10462006;22;20152;-81
2022/05/29 06:19:44;;;;;;;7.30;3.50;;;11.40;99.90;;;;;;10462977;28;20087;-81
2022/05/29 06:24:44;;;;;;;9.80;3.92;;;11.50;99.90;;;;;;10431826;28;20017;-80
2022/05/29 06:29:45;;;;;;;13.73;3.60;;;11.70;99.90;;;;;;10446388;28;20032;-80
2022/05/29 06:34:46;;;;;;;12.05;3.50;;;11.90;99.90;;;;;;10443613;28;20040;-81
2022/05/29 06:39:47;;;;;;;7.13;2.75;;;12.10;99.90;;;;;;10445017;28;20068;-82
2022/05/29 06:44:48;;;;;;;6.53;2.55;;;12.30;99.90;;;;;;10427212;28;20051;-80
2022/05/29 06:49:49;;;;;;;9.07;2.90;;;12.50;99.90;;;;;;10450623;28;20033;-80
2022/05/29 06:54:50;;;;;;;7.28;2.83;;;13.00;99.90;;;;;;10456098;28;20082;-82
2022/05/29 07:10:32;;;;;;;5.70;2.40;;;16.20;95.60;;;;;;10445799;28;20068;-81
2022/05/29 07:15:33;;;;;;;5.15;2.58;;;17.10;93.10;;;;;;10444349;28;20496;-82
2022/05/29 07:20:35;;;;;;;5.03;2.53;;;17.90;90.20;;;;;;10435966;28;20033;-82
2022/05/29 07:25:35;;;;;;;7.55;2.85;;;18.30;85.10;;;;;;10443470;28;20025;-82
2022/05/29 07:30:37;;;;;;;6.30;2.35;;;18.20;83.50;;;;;;10442996;28;20028;-82
2022/05/29 07:35:38;;;;;;;7.80;2.72;;;18.70;83.10;;;;;;10440039;28;20051;-83
2022/05/29 07:40:38;;;;;;;7.18;2.65;;;18.70;79.80;;;;;;10430638;28;20049;-81
2022/05/29 07:45:39;;;;;;;6.53;2.15;;;18.90;79.50;;;;;;10443822;28;20028;-81
2022/05/29 07:50:40;;;;;;;8.02;2.55;;;18.60;79.20;;;;;;10444700;28;20047;-82
2022/05/29 07:55:41;;;;;;;4.82;1.90;;;17.60;79.70;;;;;;10434856;28;20041;-82
2022/05/29 08:00:42;;;;;;;6.43;2.25;;;17.30;79.50;;;;;;10441593;28;20090;-82
2022/05/29 08:05:42;;;;;;;6.45;2.40;;;17.40;80.00;;;;;;10447344;28;20051;-82
2022/05/29 08:10:44;;;;;;;9.38;3.50;;;17.50;81.40;;;;;;10462654;28;20059;-82
2022/05/29 08:15:45;;;;;;;7.32;3.00;;;17.90;80.40;;;;;;10448214;28;20529;-83
2022/05/29 08:20:45;;;;;;;13.15;2.65;;;18.10;78.50;;;;;;10446360;28;20049;-83
2022/05/29 08:31:05;;;;;;;7.90;3.00;;;17.70;78.90;;;;;;10446091;28;20029;-83
2022/05/29 08:36:14;;;;;;;5.88;2.05;;;18.30;76.50;;;;;;10443893;28;20862;-83
2022/05/29 08:41:40;;;;;;;7.63;3.17;;;18.00;76.80;;;;;;10447029;28;20025;-84
2022/05/29 08:46:52;;;;;;;5.75;2.53;;;17.70;76.80;;;;;;10446724;28;20108;-83
2022/05/29 08:52:17;;;;;;;5.13;2.15;;;17.00;77.10;;;;;;10442481;28;20059;-82
2022/05/29 08:57:40;;;;;;;7.43;2.75;;;16.40;78.10;;;;;;10442394;28;20024;-82
2022/05/29 09:02:56;;;;;;;6.25;2.88;;;15.70;81.80;;;;;;10447541;28;20079;-82
2022/05/29 09:07:58;;;;;;;;;;;15.70;82.00;;;;;;10443731;28;20029;-82
2022/05/29 09:13:02;;;;;;;6.25;2.90;;;16.20;81.90;;;;;;10446063;28;19990;-82
2022/05/29 09:18:11;;;;;;;6.22;2.80;;;16.80;81.00;;;;;;10447903;28;20020;-82
2022/05/29 09:23:27;;;;;;;7.03;2.88;;;17.70;78.20;;;;;;10442872;28;20066;-81
2022/05/29 09:28:39;;;;;;;7.30;2.50;;;18.00;73.70;;;;;;10449157;28;20021;-82
2022/05/29 09:33:41;;;;;;;4.15;2.10;;;18.60;74.40;;;;;;10433505;28;20041;-81
2022/05/29 09:39:08;;;;;;;4.50;2.35;;;18.90;73.80;;;;;;10448846;28;20091;-81
2022/05/29 09:44:13;;;;;;;6.78;2.78;;;19.00;72.40;;;;;;10436175;28;20037;-81
2022/05/29 09:54:44;;;;;;;6.53;2.57;;;17.70;76.70;;;;;;10452537;28;20755;-81
2022/05/29 09:59:45;;;;;;;7.45;2.38;;;18.50;75.20;;;;;;10436786;28;20032;-80
2022/05/29 10:04:50;;;;;;;5.30;2.20;;;18.90;73.20;;;;;;10443761;28;20035;-81
2022/05/29 10:10:07;;;;;;;4.53;1.60;;;19.50;75.00;;;;;;10439559;28;20040;-82
2022/05/29 10:15:26;;;;;;;5.85;2.28;;;19.80;69.10;;;;;;10429694;28;20091;-80
2022/05/29 10:20:47;;;;;;;5.80;2.20;;;18.70;71.30;;;;;;10447137;28;20068;-80
2022/05/29 10:25:57;;;;;;;2.95;1.92;;;17.90;73.40;;;;;;10452331;28;20017;-81
2022/05/29 10:31:05;;;;;;;4.47;2.10;;;17.80;77.40;;;;;;10433500;28;20028;-81
2022/05/29 10:36:18;;;;;;;4.93;2.00;;;17.90;72.40;;;;;;10449998;28;20060;-81
2022/05/29 10:41:33;;;;;;;7.30;3.28;;;18.30;71.50;;;;;;10451830;28;20036;-81
2022/05/29 10:47:02;;;;;;;7.40;3.40;;;18.10;72.50;;;;;;10438854;28;20396;-80
2022/05/29 10:52:08;;;;;;;8.32;2.70;;;17.70;72.50;;;;;;10439365;28;20017;-81
2022/05/29 10:57:27;;;;;;;4.43;1.90;;;19.10;75.20;;;;;;10456124;28;20029;-81
2022/05/29 11:03:23;;;;;;;6.82;2.38;;;20.40;71.70;;;;;;10454462;28;20072;-82
2022/05/29 11:08:19;;;;;;;3.17;1.70;;;20.20;66.70;;;;;;10436059;28;20166;-81
2022/05/29 11:13:31;;;;;;;4.55;1.70;;;19.80;70.70;;;;;;10441839;28;20085;-82
2022/05/29 11:19:07;;;;;;;4.32;1.77;;;19.60;69.70;;;;;;10453465;28;20090;-82
2022/05/29 11:24:29;;;;;;;5.03;1.98;;;20.20;69.90;;;;;;10446597;28;20021;-82
2022/05/29 11:29:51;;;;;;;7.65;2.03;;;19.70;69.20;;;;;;10427785;28;20043;-82
2022/05/29 11:35:05;;;;;;;2.22;1.70;;;19.00;69.10;;;;;;10438881;28;20032;-81
2022/05/29 11:40:25;;;;;;;7.63;2.70;;;18.60;69.90;;;;;;10438245;28;20476;-81
2022/05/29 11:51:21;;;;;;;6.25;2.38;;;19.90;70.80;;;;;;10445158;28;20079;-82
2022/05/29 11:56:38;;;;;;;5.55;2.20;;;20.10;67.50;;;;;;10449101;28;20036;-83
2022/05/29 12:01:44;;;;;;;2.33;1.73;;;19.20;67.80;;;;;;10441930;28;20037;-83
2022/05/29 12:07:01;;;;;;;5.00;1.98;;;19.00;68.10;;;;;;10441179;28;20100;-84
2022/05/29 12:12:18;;;;;;;5.47;2.30;;;19.00;71.50;;;;;;10442811;28;20084;-83
2022/05/29 12:17:38;;;;;;;4.75;2.30;;;19.60;67.60;;;;;;10442139;28;20036;-82
2022/05/29 12:22:49;;;;;;;3.42;1.70;;;19.50;67.10;;;;;;10419532;28;20496;-82
2022/05/29 12:27:52;;;;;;;2.58;2.05;;;19.50;68.20;;;;;;10444602;28;20025;-81
2022/05/29 12:32:53;;;;;;;4.75;2.25;;;19.60;67.20;;;;;;10454580;28;20032;-82
2022/05/29 12:38:31;;;;;;;6.07;2.20;;;19.80;69.10;;;;;;10455256;28;20847;-82
2022/05/29 12:43:50;;;;;;;4.88;1.65;;;20.10;67.60;;;;;;10431220;28;20689;-86
2022/05/29 12:49:07;;;;;;;4.43;2.03;;;20.20;68.00;;;;;;10447342;28;20025;-81
2022/05/29 12:54:54;;;;;;;3.65;1.80;;;20.40;66.50;;;;;;10444164;28;20025;-82
2022/05/29 13:00:35;;;;;;;2.47;1.67;;;20.40;65.00;;;;;;10446648;28;20562;-82
2022/05/29 13:05:42;;;;;;;3.85;1.38;;;20.40;64.30;;;;;;10441954;28;20031;-84
2022/05/29 13:10:47;;;;;;;3.40;1.63;;;20.40;64.80;;;;;;10452015;28;20508;-81
2022/05/29 13:15:48;;;;;;;;;;;20.20;66.20;;;;;;10451441;28;20100;-81
2022/05/29 13:21:14;;;;;;;9.80;3.75;;;20.10;65.10;;;;;;10457191;28;20355;-82
2022/05/29 13:26:27;;;;;;;2.72;1.50;;;19.90;65.30;;;;;;10439729;28;20067;-81
2022/05/29 13:31:33;;;;;;;2.58;1.73;;;19.60;64.40;;;;;;10439900;28;20033;-82
2022/05/29 13:36:43;;;;;;;1.90;1.42;;;19.40;66.30;;;;;;10441148;28;20048;-82
2022/05/29 13:41:52;;;;;;;3.78;1.80;;;19.30;62.50;;;;;;10449162;28;20472;-82
2022/05/29 13:47:18;;;;;;;3.67;1.60;;;19.20;62.10;;;;;;10439713;28;20028;-84
2022/05/29 13:52:25;;;;;;;3.80;1.55;;;19.30;64.50;;;;;;10441379;28;20388;-81
2022/05/29 14:08:20;;;;;;;6.00;2.22;;;20.10;63.70;;;;;;10441678;28;20080;-82
2022/05/29 14:13:51;;;;;;;4.47;1.60;;;20.10;63.70;;;;;;10446737;28;20049;-80
2022/05/29 14:19:21;;;;;;;5.25;1.70;;;19.80;62.70;;;;;;10438180;28;20029;-81
2022/05/29 14:24:32;;;;;;;4.03;2.03;;;19.50;62.00;;;;;;10459516;28;20041;-84
2022/05/29 14:30:01;;;;;;;2.65;1.60;;;19.30;65.80;;;;;;10444860;28;20021;-83
2022/05/29 14:35:39;;;;;;;3.00;1.55;;;19.10;62.80;;;;;;10450499;28;20057;-82
2022/05/29 14:40:53;;;;;;;3.42;1.65;;;18.90;65.70;;;;;;10447994;28;20033;-84
2022/05/29 14:46:31;;;;;;;3.58;1.90;;;18.90;64.30;;;;;;10451620;28;20025;-81
2022/05/29 14:51:40;;;;;;;2.38;1.92;;;18.80;64.40;;;;;;10448248;28;20029;-83
2022/05/29 14:56:52;;;;;;;2.35;1.80;;;18.90;66.10;;;;;;10428218;28;20503;-81
2022/05/29 15:01:57;;;;;;;3.90;2.22;;;18.90;66.60;;;;;;10429500;28;20037;-81
2022/05/29 15:12:27;;;;;;;3.22;1.75;;;18.60;66.10;;;;;;10439755;28;20053;-81
2022/05/29 15:17:27;;;;;;;2.35;1.80;;;18.50;65.00;;;;;;10447712;28;20025;-82
2022/05/29 15:27:54;;;;;;;2.75;1.60;;;18.40;66.30;;;;;;10397030;28;20044;-82
2022/05/29 15:33:03;;;;;;;3.30;1.52;;;18.20;67.00;;;;;;10438928;28;20036;-81
2022/05/29 15:38:30;;;;;;;5.90;1.90;;;18.00;68.40;;;;;;10445578;28;20480;-83
2022/05/29 15:44:07;;;;;;;5.80;2.05;;;17.60;68.50;;;;;;10419822;28;20550;-82
2022/05/29 15:49:35;;;;;;;5.25;1.85;;;17.20;68.50;;;;;;10434398;28;20021;-82
2022/05/29 15:55:12;;;;;;;3.60;1.80;;;16.90;70.30;;;;;;10436689;28;20049;-82
2022/05/29 16:00:15;;;;;;;5.22;1.75;;;16.80;70.10;;;;;;10432048;28;20084;-81
2022/05/29 16:05:23;;;;;;;3.42;1.60;;;16.70;69.90;;;;;;10432652;28;20559;-84
2022/05/29 16:10:24;;;;;;;3.72;1.60;;;16.60;71.00;;;;;;10415280;28;20140;-85
2022/05/29 16:15:41;;;;;;;4.22;2.05;;;16.50;72.60;;;;;;10425466;28;20036;-84
2022/05/29 16:20:56;;;;;;;3.50;1.83;;;16.30;74.90;;;;;;10424599;28;20044;-83
2022/05/29 16:26:11;;;;;;;3.78;1.70;;;16.20;74.60;;;;;;10444985;28;20017;-82
2022/05/29 16:31:16;;;;;;;6.23;1.77;;;16.10;77.10;;;;;;10440904;28;20155;-84
2022/05/29 16:36:26;;;;;;;2.35;1.70;;;16.20;75.60;;;;;;10444717;28;20033;-83
2022/05/29 16:52:25;;;;;;;3.33;2.05;;;16.00;74.70;;;;;;10441588;28;20032;-83
2022/05/29 16:57:48;;;;;;;5.45;1.80;;;15.90;75.60;;;;;;10440679;28;20024;-85
2022/05/29 17:03:25;;;;;;;6.43;1.80;;;15.80;76.00;;;;;;10441179;28;20087;-83
2022/05/29 17:08:35;;;;;;;4.18;2.33;;;15.70;76.20;;;;;;10421946;28;20025;-87
2022/05/29 17:13:36;;;;;;;4.78;1.90;;;15.70;76.20;;;;;;10416470;28;20080;-83
2022/05/29 17:18:36;;;;;;;7.63;2.30;;;15.50;76.40;;;;;;10448065;28;20044;-83
2022/05/29 17:24:14;;;;;;;4.00;2.42;;;15.50;77.10;;;;;;10443883;28;20483;-83
2022/05/29 17:29:25;;;;;;;5.95;2.53;;;15.40;78.20;;;;;;10427578;28;20075;-83
2022/05/29 17:34:32;;;;;;;13.38;2.40;;;15.20;79.00;;;;;;10458448;28;20124;-83
2022/05/29 17:40:03;;;;;;;6.60;2.65;;;15.10;79.20;;;;;;10455941;28;20527;-83
2022/05/29 17:45:04;;;;;;;3.47;2.53;;;15.10;79.10;;;;;;10457809;28;20037;-83
2022/05/29 17:50:08;;;;;;;5.50;2.55;;;15.00;79.60;;;;;;10432829;28;20060;-83
2022/05/29 17:55:12;;;;;;;7.53;3.38;;;15.00;79.70;;;;;;10432261;28;20017;-83
2022/05/29 18:00:17;;;;;;;7.38;2.83;;;14.90;79.80;;;;;;10452562;28;20419;-83
2022/05/29 18:05:18;;;;;;;5.45;3.08;;;14.90;82.30;;;;;;10456076;28;20021;-83
2022/05/29 18:10:20;;;;;;;6.68;2.67;;;14.80;83.40;;;;;;10452017;28;20033;-84
2022/05/29 18:15:21;;;;;;;7.05;2.95;;;14.70;82.90;;;;;;10452416;28;20025;-83
2022/05/29 18:20:23;;;;;;;8.23;3.72;;;14.50;83.10;;;;;;10469530;28;20053;-84
2022/05/29 18:25:24;;;;;;;4.80;2.63;;;14.50;84.70;;;;;;10454477;28;20033;-84
2022/05/29 18:30:25;;;;;;;3.40;2.08;;;14.40;84.60;;;;;;10459335;28;20576;-83
2022/05/29 18:35:25;;;;;;;3.42;2.40;;;14.40;82.50;;;;;;10447350;28;20184;-84
2022/05/29 18:40:28;;;;;;;5.47;2.70;;;14.30;84.10;;;;;;10447701;28;20036;-89
2022/05/29 18:45:29;;;;;;;5.28;2.35;;;14.20;83.70;;;;;;10435888;28;20056;-84
2022/05/29 18:50:30;;;;;;;5.35;2.30;;;14.10;83.70;;;;;;10443880;28;20159;-84
2022/05/29 18:55:32;;;;;;;3.65;2.58;;;14.00;87.40;;;;;;10456211;28;20793;-84
2022/05/29 19:00:33;;;;;;;4.95;2.95;;;13.80;90.70;;;;;;10441859;28;20028;-84
2022/05/29 19:05:36;;;;;;;5.63;3.22;;;13.40;93.30;;;;;;10458696;28;20020;-84
2022/05/29 19:10:38;;;;;;;7.28;3.67;;;13.10;96.70;;;;;;10446360;28;20399;-86
2022/05/29 19:15:39;;;;;;;6.53;3.70;;;12.80;99.90;;;;;;10426861;28;20037;-84
2022/05/29 19:20:55;;;;;;;9.35;3.60;;;12.60;99.90;;;;;;10444210;28;20029;-81
2022/05/29 19:26:04;;;;;;;5.50;3.60;;;12.50;99.90;;;;;;10444746;28;20107;-82
2022/05/29 19:31:05;;;;;;;8.00;4.20;;;12.50;99.90;;;;;;10424645;28;20047;-82
2022/05/29 19:36:16;;;;;;;17.60;8.75;;;12.60;99.90;;;;;;10441197;28;20048;-82
2022/05/29 19:41:20;;;;;;;12.05;6.30;;;12.60;99.90;;;;;;10442001;28;20036;-81
2022/05/29 19:46:23;;;;;;;6.28;3.92;;;12.60;99.90;;;;;;10443278;28;20090;-81
2022/05/29 19:51:26;;;;;;;7.55;5.38;;;12.60;99.90;;;;;;10445164;28;20041;-82
2022/05/29 19:56:33;;;;;;;9.10;5.15;;;12.50;99.90;;;;;;10445104;28;20083;-83
2022/05/29 20:01:34;;;;;;;10.73;5.65;;;12.40;99.90;;;;;;10437796;28;20083;-82
2022/05/29 20:06:38;;;;;;;9.80;6.03;;;12.30;99.90;;;;;;10446463;28;20036;-81
2022/05/29 20:11:44;;;;;;;11.57;8.13;;;12.10;99.90;;;;;;10446860;28;20061;-82
2022/05/29 20:16:47;;;;;;;19.15;9.88;;;11.90;99.90;;;;;;10445624;28;20032;-82
2022/05/29 20:21:48;;;;;;;17.33;11.18;;;11.60;99.90;;;;;;10445503;28;20036;-82
2022/05/29 20:26:50;;;;;;;21.58;13.73;;;11.40;99.90;;;;;;10445059;28;20032;-80
2022/05/29 20:31:51;;;;;;;22.95;12.70;;;11.20;99.90;;;;;;10442412;28;20469;-82
2022/05/29 20:36:51;;;;;;;21.02;12.93;;;10.90;99.90;;;;;;10445688;28;20048;-81
2022/05/29 20:41:55;;;;;;;19.42;13.27;;;10.70;99.90;;;;;;10445769;28;20024;-81
2022/05/29 20:52:18;;;;;;;22.38;12.45;;;10.50;99.90;;;;;;10443291;28;20044;-82
2022/05/29 20:57:19;;;;;;;26.05;14.35;;;10.40;99.90;;;;;;10444870;28;20052;-82
2022/05/29 21:02:20;;;;;;;26.00;15.57;;;10.30;99.90;;;;;;10443113;28;20036;-82
2022/05/29 21:07:21;;;;;;;26.55;15.85;;;10.30;99.90;;;;;;10443763;28;20036;-82
2022/05/29 21:12:23;;;;;;;23.77;13.43;;;10.30;99.90;;;;;;10444255;28;20144;-82
2022/05/29 21:17:23;;;;;;;19.02;13.30;;;10.30;99.90;;;;;;10442958;28;20033;-82
2022/05/29 21:22:24;;;;;;;18.50;11.80;;;10.20;99.90;;;;;;10444513;28;20055;-81
2022/05/29 21:27:24;;;;;;;22.40;12.80;;;10.20;99.90;;;;;;10442905;28;20025;-81
2022/05/29 21:32:25;;;;;;;22.50;13.03;;;10.20;99.90;;;;;;10444177;28;20060;-81
2022/05/29 21:42:46;;;;;;;21.20;14.50;;;10.20;99.90;;;;;;10437467;28;20033;-82
2022/05/29 21:47:46;;;;;;;28.25;14.80;;;10.20;99.90;;;;;;10410326;28;20025;-82
2022/05/29 21:52:47;;;;;;;22.20;13.73;;;10.30;99.90;;;;;;10444908;28;20053;-81
2022/05/29 21:57:48;;;;;;;22.53;14.77;;;10.30;99.90;;;;;;10438670;28;20388;-82
2022/05/29 22:02:48;;;;;;;20.80;13.33;;;10.30;99.90;;;;;;10440863;28;20040;-83
2022/05/29 22:07:49;;;;;;;27.17;15.73;;;10.20;99.90;;;;;;10457193;28;20678;-83
2022/05/29 22:12:49;;;;;;;22.23;14.00;;;10.10;99.90;;;;;;10444534;28;20053;-84
2022/05/29 22:17:51;;;;;;;18.27;8.87;;;10.10;99.90;;;;;;10444310;28;20037;-84
2022/05/29 22:22:51;;;;;;;18.10;8.70;;;10.00;99.90;;;;;;10447106;28;20487;-83
2022/05/29 22:27:52;;;;;;;24.93;10.90;;;9.90;99.90;;;;;;10444646;28;20029;-84
2022/05/29 22:33:06;;;;;;;33.07;18.80;;;9.80;99.90;;;;;;10442766;28;20044;-85
2022/05/29 22:38:07;;;;;;;37.40;19.37;;;9.70;99.90;;;;;;10443909;28;20041;-83
2022/05/29 22:43:08;;;;;;;24.90;14.17;;;9.70;99.90;;;;;;10445918;28;20029;-84
2022/05/29 22:48:17;;;;;;;25.13;14.37;;;9.60;99.90;;;;;;10440106;28;20029;-83
2022/05/29 22:53:55;;;;;;;24.87;15.20;;;9.60;99.90;;;;;;10451475;28;20056;-84
2022/05/29 22:58:56;;;;;;;21.13;13.50;;;9.60;99.90;;;;;;10448492;28;20462;-82
2022/05/29 23:04:17;;;;;;;25.00;13.67;;;9.60;99.90;;;;;;10457380;28;20082;-84
2022/05/29 23:09:18;;;;;;;18.37;11.47;;;9.50;99.90;;;;;;10439302;28;20027;-85
2022/05/29 23:14:19;;;;;;;23.67;13.93;;;9.50;99.90;;;;;;10458099;28;20500;-84
2022/05/29 23:19:19;;;;;;;19.87;12.03;;;9.50;99.90;;;;;;10449055;28;20067;-83
2022/05/29 23:24:30;;;;;;;24.13;13.63;;;9.50;99.90;;;;;;10454281;28;20040;-82
2022/05/29 23:34:58;;;;;;;25.90;15.53;;;9.50;99.90;;;;;;10460709;28;20029;-82
2022/05/29 23:39:58;;;;;;;25.40;15.10;;;9.50;99.90;;;;;;10443873;28;20057;-83
2022/05/29 23:45:20;;;;;;;24.87;14.47;;;9.50;99.90;;;;;;10433566;28;20125;-84
2022/05/29 23:50:22;;;;;;;26.97;14.13;;;9.40;99.90;;;;;;10447440;28;20047;-83
2022/05/29 23:55:24;;;;;;;28.90;15.03;;;9.50;99.90;;;;;;10443443;28;20094;-82
